Time;durP1;ratioP1;P1;durP2;ratioP2;P2;SDS_P1;SDS_P2;PMS_P1;PMS_P2;Temp;Humidity;BMP_temperature;BMP_pressure;BME280_temperature;BME280_humidity;BME280_pressure;Samples;Min_cycle;Max_cycle;Signal;HPM_P1;HPM_P2
2022/11/22 00:00:12;;;;;;;4.17;1.30;;;9.20;99.90;;;;;;5042762;28;20208;-80
2022/11/22 00:02:38;;;;;;;3.10;1.23;;;9.20;99.90;;;;;;5043460;28;20204;-81
2022/11/22 00:05:04;;;;;;;2.77;1.40;;;9.20;99.90;;;;;;5050399;28;20260;-83
2022/11/22 00:07:29;;;;;;;2.83;1.20;;;9.20;99.90;;;;;;5046568;28;20177;-80
2022/11/22 00:09:55;;;;;;;3.93;1.50;;;9.20;99.90;;;;;;5038355;28;20174;-80
2022/11/22 00:12:21;;;;;;;3.57;1.20;;;9.20;99.90;;;;;;5040412;28;20276;-80
2022/11/22 00:14:49;;;;;;;2.67;1.30;;;9.20;99.90;;;;;;5044445;28;20178;-81
2022/11/22 00:17:14;;;;;;;2.70;1.10;;;9.20;99.90;;;;;;5054735;28;20227;-80
2022/11/22 00:19:41;;;;;;;2.70;1.23;;;9.10;99.90;;;;;;5043196;28;20201;-79
2022/11/22 00:22:07;;;;;;;2.80;1.47;;;9.10;99.90;;;;;;5047856;28;20174;-81
2022/11/22 00:24:35;;;;;;;2.73;1.47;;;9.10;99.90;;;;;;5043641;28;20252;-79
2022/11/22 00:27:00;;;;;;;2.57;1.20;;;9.00;99.90;;;;;;5055600;28;20178;-80
2022/11/22 00:29:26;;;;;;;3.03;1.40;;;9.10;99.90;;;;;;5050738;28;20182;-80
2022/11/22 00:31:54;;;;;;;1.10;0.90;;;9.10;99.90;;;;;;5043610;28;20181;-80
2022/11/22 00:34:22;;;;;;;1.90;1.20;;;9.10;99.90;;;;;;5041957;28;20174;-79
2022/11/22 00:36:47;;;;;;;4.17;1.20;;;9.10;99.90;;;;;;5047887;28;20174;-80
2022/11/22 00:39:13;;;;;;;2.77;1.10;;;9.10;99.90;;;;;;5050811;28;20193;-79
2022/11/22 00:41:38;;;;;;;2.03;1.00;;;9.10;99.90;;;;;;5050319;28;20218;-80
2022/11/22 00:44:04;;;;;;;1.90;1.03;;;9.10;99.90;;;;;;5048764;28;20186;-80
2022/11/22 00:46:30;;;;;;;2.53;1.27;;;9.10;99.90;;;;;;5046652;28;20178;-79
2022/11/22 00:48:55;;;;;;;1.67;1.03;;;9.10;99.90;;;;;;5045253;28;20186;-79
2022/11/22 00:51:26;;;;;;;3.23;1.00;;;9.10;99.90;;;;;;5045808;28;20177;-80
2022/11/22 00:53:51;;;;;;;2.93;1.10;;;9.10;99.90;;;;;;5040125;28;20185;-80
2022/11/22 00:56:17;;;;;;;1.70;1.00;;;9.10;99.90;;;;;;5042984;28;20177;-81
2022/11/22 00:58:45;;;;;;;2.00;1.00;;;9.10;99.90;;;;;;5046824;28;20204;-79
2022/11/22 01:01:13;;;;;;;2.67;1.20;;;9.10;99.90;;;;;;5053999;28;20182;-81
2022/11/22 01:03:38;;;;;;;2.37;1.47;;;9.10;99.90;;;;;;5053182;28;20188;-81
2022/11/22 01:06:06;;;;;;;2.13;0.90;;;9.10;99.90;;;;;;5038178;28;20170;-81
2022/11/22 01:08:32;;;;;;;1.60;0.93;;;9.10;99.90;;;;;;5038415;28;20255;-79
2022/11/22 01:10:59;;;;;;;1.67;1.00;;;9.10;99.90;;;;;;5042676;28;20189;-80
2022/11/22 01:13:27;;;;;;;2.77;1.07;;;9.10;99.90;;;;;;5042668;28;20196;-80
2022/11/22 01:15:58;;;;;;;1.83;0.80;;;9.10;99.90;;;;;;5050895;28;20181;-78
2022/11/22 01:18:23;;;;;;;1.97;1.00;;;9.10;99.90;;;;;;5052639;28;20296;-79
2022/11/22 01:20:51;;;;;;;1.40;0.90;;;9.10;99.90;;;;;;5052576;28;20268;-79
2022/11/22 01:23:16;;;;;;;1.77;0.90;;;9.00;99.90;;;;;;5052323;28;20184;-79
2022/11/22 01:25:45;;;;;;;2.53;1.07;;;9.00;99.90;;;;;;5050644;28;20174;-80
2022/11/22 01:28:11;;;;;;;3.00;1.03;;;9.00;99.90;;;;;;5049666;28;20181;-79
2022/11/22 01:30:37;;;;;;;2.33;0.87;;;9.00;99.90;;;;;;5050000;28;20219;-78
2022/11/22 01:33:05;;;;;;;1.33;0.80;;;9.00;99.90;;;;;;5043980;28;20174;-80
2022/11/22 01:35:31;;;;;;;1.30;0.70;;;9.00;99.90;;;;;;5037376;28;20189;-80
2022/11/22 01:37:59;;;;;;;1.60;0.90;;;9.00;99.90;;;;;;5052109;28;20173;-79
2022/11/22 01:40:26;;;;;;;1.57;1.00;;;8.90;99.90;;;;;;5045774;28;20241;-80
2022/11/22 01:42:54;;;;;;;2.00;0.90;;;8.90;99.90;;;;;;5051594;28;20463;-79
2022/11/22 01:45:29;;;;;;;1.80;0.70;;;8.90;99.90;;;;;;5053769;28;20169;-80
2022/11/22 01:48:09;;;;;;;0.90;0.70;;;8.90;99.90;;;;;;5053716;28;20184;-81
2022/11/22 01:50:38;;;;;;;2.20;0.90;;;8.80;99.90;;;;;;5048905;28;20272;-79
2022/11/22 01:53:14;;;;;;;1.10;0.70;;;8.80;99.90;;;;;;5043491;28;20186;-80
2022/11/22 01:55:40;;;;;;;0.80;0.70;;;8.80;99.90;;;;;;5043095;28;20182;-80
2022/11/22 01:58:10;;;;;;;2.27;0.77;;;8.80;99.90;;;;;;5049239;28;20182;-79
2022/11/22 02:00:40;;;;;;;1.80;0.70;;;8.80;99.90;;;;;;5052326;28;20174;-80
2022/11/22 02:03:10;;;;;;;1.57;0.60;;;8.70;99.90;;;;;;5046262;28;20172;-81
2022/11/22 02:05:36;;;;;;;0.93;0.70;;;8.60;99.90;;;;;;5034231;28;20245;-80
2022/11/22 02:08:11;;;;;;;2.00;0.57;;;8.70;99.90;;;;;;5044982;28;20259;-79
2022/11/22 02:10:44;;;;;;;1.87;0.70;;;8.70;99.90;;;;;;5037802;28;20180;-80
2022/11/22 02:13:15;;;;;;;1.20;0.70;;;8.80;99.90;;;;;;5051943;28;20221;-73
2022/11/22 02:15:41;;;;;;;0.73;0.43;;;8.70;99.90;;;;;;5045654;28;20185;-74
2022/11/22 02:18:11;;;;;;;1.00;0.60;;;8.70;99.90;;;;;;5052644;28;20185;-74
2022/11/22 02:20:38;;;;;;;0.83;0.60;;;8.70;99.90;;;;;;5042404;28;20316;-75
2022/11/22 02:23:33;;;;;;;2.43;1.00;;;8.70;99.90;;;;;;5054168;28;20193;-74
2022/11/22 02:26:02;;;;;;;2.10;0.73;;;8.80;99.90;;;;;;5049966;28;20178;-71
2022/11/22 02:28:35;;;;;;;1.47;0.80;;;8.70;99.90;;;;;;5034881;28;20213;-74
2022/11/22 02:31:01;;;;;;;3.60;0.70;;;8.80;99.90;;;;;;5042939;28;20186;-71
2022/11/22 02:33:26;;;;;;;2.07;0.50;;;8.80;99.90;;;;;;5041196;28;20243;-76
2022/11/22 02:35:52;;;;;;;1.37;0.57;;;8.80;99.90;;;;;;5041388;28;20308;-76
2022/11/22 02:38:44;;;;;;;1.57;0.70;;;8.80;99.90;;;;;;5048921;28;20257;-74
2022/11/22 02:41:11;;;;;;;1.87;0.50;;;8.90;99.90;;;;;;5041348;28;20201;-72
2022/11/22 02:43:41;;;;;;;1.47;0.67;;;8.90;99.90;;;;;;5051935;28;20177;-76
2022/11/22 02:46:14;;;;;;;0.87;0.50;;;8.90;99.90;;;;;;5052324;28;20269;-75
2022/11/22 02:48:46;;;;;;;1.13;0.60;;;8.90;99.90;;;;;;5050924;28;20182;-76
2022/11/22 02:51:15;;;;;;;1.20;0.40;;;8.90;99.90;;;;;;5043112;28;20196;-75
2022/11/22 02:53:52;;;;;;;2.50;0.60;;;8.80;99.90;;;;;;5040809;28;20252;-76
2022/11/22 02:56:20;;;;;;;2.93;0.50;;;8.80;99.90;;;;;;5054886;28;20189;-75
2022/11/22 02:58:46;;;;;;;2.53;0.60;;;8.80;99.90;;;;;;5051639;28;20292;-74
2022/11/22 03:01:14;;;;;;;1.63;0.80;;;8.80;99.90;;;;;;5047647;28;20280;-76
2022/11/22 03:03:40;;;;;;;1.13;0.70;;;8.80;99.90;;;;;;5040285;28;20260;-76
2022/11/22 03:06:07;;;;;;;1.80;0.80;;;8.70;99.90;;;;;;5052818;28;20253;-75
2022/11/22 03:08:35;;;;;;;0.90;0.60;;;8.70;99.90;;;;;;5036994;28;20201;-75
2022/11/22 03:11:06;;;;;;;3.37;0.60;;;8.80;99.90;;;;;;5034439;28;20186;-76
2022/11/22 03:13:31;;;;;;;3.07;0.90;;;8.70;99.90;;;;;;5048333;28;20244;-76
2022/11/22 03:15:57;;;;;;;2.97;1.10;;;8.70;99.90;;;;;;5055444;28;20180;-76
2022/11/22 03:18:25;;;;;;;3.07;1.00;;;8.70;99.90;;;;;;5042356;28;20242;-77
2022/11/22 03:20:53;;;;;;;2.23;0.80;;;8.80;99.90;;;;;;5034554;28;20197;-75
2022/11/22 03:23:18;;;;;;;4.23;0.93;;;8.80;99.90;;;;;;5040565;28;20174;-75
2022/11/22 03:25:44;;;;;;;2.43;1.00;;;8.80;99.90;;;;;;5042373;28;20177;-76
2022/11/22 03:28:12;;;;;;;3.00;0.90;;;8.80;99.90;;;;;;5043359;28;20181;-76
2022/11/22 03:30:43;;;;;;;1.67;0.63;;;8.70;99.90;;;;;;5038144;28;20186;-75
2022/11/22 03:33:09;;;;;;;1.77;0.80;;;8.70;99.90;;;;;;5042880;28;20173;-76
2022/11/22 03:35:39;;;;;;;3.13;1.00;;;8.70;99.90;;;;;;5045588;28;20192;-75
2022/11/22 03:38:05;;;;;;;2.00;0.80;;;8.70;99.90;;;;;;5051437;28;20209;-76
2022/11/22 03:40:32;;;;;;;2.00;0.73;;;8.70;99.90;;;;;;5045684;28;20355;-77
2022/11/22 03:43:00;;;;;;;2.53;0.80;;;8.60;99.90;;;;;;5040784;28;20165;-76
2022/11/22 03:45:26;;;;;;;3.23;0.70;;;8.60;99.90;;;;;;5038770;28;20191;-75
2022/11/22 03:47:55;;;;;;;2.13;0.90;;;8.50;99.90;;;;;;5041482;28;20265;-76
2022/11/22 03:50:20;;;;;;;4.83;1.03;;;8.50;99.90;;;;;;5034881;28;20194;-76
2022/11/22 03:52:46;;;;;;;1.50;0.87;;;8.50;99.90;;;;;;5049008;28;20216;-76
2022/11/22 03:55:11;;;;;;;1.83;0.67;;;8.50;99.90;;;;;;5047918;28;20182;-76
2022/11/22 03:57:37;;;;;;;3.17;1.00;;;8.50;99.90;;;;;;5049357;28;20177;-76
2022/11/22 04:00:04;;;;;;;2.63;0.90;;;8.50;99.90;;;;;;5047002;28;20228;-76
2022/11/22 04:02:32;;;;;;;2.07;0.80;;;8.40;99.90;;;;;;5043098;28;20174;-76
2022/11/22 04:05:02;;;;;;;2.47;0.80;;;8.50;99.90;;;;;;5034121;28;20174;-76
2022/11/22 04:07:27;;;;;;;4.57;1.00;;;8.40;99.90;;;;;;5035329;28;20269;-75
2022/11/22 04:09:53;;;;;;;3.03;0.93;;;8.40;99.90;;;;;;5054248;28;20279;-75
2022/11/22 04:12:21;;;;;;;1.83;0.80;;;8.40;99.90;;;;;;5035912;28;20174;-76
2022/11/22 04:17:47;;;;;;;1.77;0.70;;;8.40;99.90;;;;;;5034972;28;20229;-76
2022/11/22 04:23:09;;;;;;;2.73;0.80;;;8.40;99.90;;;;;;5049929;28;20200;-76
2022/11/22 04:25:38;;;;;;;2.37;0.80;;;8.40;99.90;;;;;;5037648;28;20269;-76
2022/11/22 04:28:10;;;;;;;2.83;0.90;;;8.40;99.90;;;;;;5041721;28;20170;-76
2022/11/22 04:33:20;;;;;;;2.67;1.33;;;8.20;99.90;;;;;;5038530;28;20208;-76
2022/11/22 04:35:46;;;;;;;4.03;1.30;;;8.20;99.90;;;;;;5041759;28;20185;-76
2022/11/22 04:38:12;;;;;;;3.37;1.57;;;8.10;99.90;;;;;;5049603;28;20178;-76
2022/11/22 04:40:39;;;;;;;3.10;1.30;;;8.10;99.90;;;;;;5041020;28;20190;-76
2022/11/22 04:45:50;;;;;;;2.57;1.30;;;7.90;99.90;;;;;;5044780;28;20172;-75
2022/11/22 04:48:16;;;;;;;4.70;1.83;;;7.90;99.90;;;;;;5053920;28;20225;-77
2022/11/22 04:53:30;;;;;;;6.13;1.20;;;7.80;99.90;;;;;;5043410;28;20261;-77
2022/11/22 04:55:56;;;;;;;3.40;1.10;;;7.80;99.90;;;;;;5054630;28;20236;-77
2022/11/22 04:58:24;;;;;;;4.33;1.23;;;7.70;99.90;;;;;;5041043;28;20174;-77
2022/11/22 05:00:50;;;;;;;3.00;1.10;;;7.70;99.90;;;;;;5050713;28;20193;-77
2022/11/22 05:03:16;;;;;;;2.00;1.10;;;7.60;99.90;;;;;;5047064;28;20177;-77
2022/11/22 05:05:43;;;;;;;4.77;1.50;;;7.70;99.90;;;;;;5051644;28;20184;-77
2022/11/22 05:08:09;;;;;;;2.33;1.20;;;7.60;99.90;;;;;;5051809;28;20180;-76
2022/11/22 05:13:38;;;;;;;3.33;1.10;;;7.60;99.90;;;;;;5048205;28;20216;-74
2022/11/22 05:16:09;;;;;;;3.17;1.10;;;7.60;99.90;;;;;;5045663;28;20192;-76
2022/11/22 05:18:35;;;;;;;5.63;0.83;;;7.70;99.90;;;;;;5046997;28;20216;-77
2022/11/22 05:21:10;;;;;;;4.23;1.00;;;7.60;99.90;;;;;;5041651;28;20174;-77
2022/11/22 05:23:54;;;;;;;3.37;1.03;;;7.60;99.90;;;;;;5043078;28;21813;-76
2022/11/22 05:26:29;;;;;;;4.97;1.20;;;7.60;99.90;;;;;;5039527;28;20188;-75
2022/11/22 05:29:00;;;;;;;4.80;1.17;;;7.70;99.90;;;;;;5045243;28;20190;-76
2022/11/22 05:31:26;;;;;;;3.13;1.20;;;7.70;99.90;;;;;;5063331;28;20185;-76
2022/11/22 05:33:55;;;;;;;4.53;1.60;;;7.70;99.90;;;;;;5055151;28;20251;-76
2022/11/22 05:36:24;;;;;;;3.93;1.50;;;7.70;99.90;;;;;;5046256;28;20272;-76
2022/11/22 05:38:52;;;;;;;4.73;1.40;;;7.70;99.90;;;;;;5040893;28;20205;-76
2022/11/22 05:41:18;;;;;;;5.00;1.53;;;7.70;99.90;;;;;;5052475;28;20190;-72
2022/11/22 05:43:43;;;;;;;3.43;1.13;;;7.70;99.90;;;;;;5054052;28;20251;-73
2022/11/22 05:46:13;;;;;;;3.40;1.20;;;7.80;99.90;;;;;;5042388;28;20178;-73
2022/11/22 05:48:43;;;;;;;4.10;1.20;;;7.80;99.90;;;;;;5037648;28;20247;-77
2022/11/22 05:51:13;;;;;;;3.57;1.30;;;7.90;99.90;;;;;;5050536;28;20192;-77
2022/11/22 05:53:40;;;;;;;6.23;2.50;;;7.90;99.90;;;;;;5057066;28;20182;-76
2022/11/22 05:56:12;;;;;;;6.67;2.10;;;8.00;99.90;;;;;;5057126;28;20177;-74
2022/11/22 05:58:38;;;;;;;6.70;1.83;;;8.00;99.90;;;;;;5048851;28;20212;-75
2022/11/22 06:01:24;;;;;;;4.13;1.27;;;8.00;99.90;;;;;;5043736;28;20201;-76
2022/11/22 06:03:52;;;;;;;4.40;1.30;;;8.00;99.90;;;;;;5038711;28;20182;-76
2022/11/22 06:06:18;;;;;;;3.77;1.30;;;8.00;99.90;;;;;;5052904;28;20177;-76
2022/11/22 06:08:47;;;;;;;5.07;1.40;;;8.00;99.90;;;;;;5055391;28;20189;-76
2022/11/22 06:11:21;;;;;;;5.73;1.53;;;8.00;99.90;;;;;;5053240;28;20181;-77
2022/11/22 06:13:49;;;;;;;4.97;1.33;;;8.00;99.90;;;;;;5045240;28;20217;-76
2022/11/22 06:16:15;;;;;;;7.20;1.40;;;8.00;99.90;;;;;;5054548;28;20196;-73
2022/11/22 06:18:41;;;;;;;4.07;1.40;;;8.00;99.90;;;;;;5047567;28;20202;-76
2022/11/22 06:21:13;;;;;;;6.00;1.53;;;8.00;99.90;;;;;;5035435;28;20181;-75
2022/11/22 06:23:38;;;;;;;2.83;1.30;;;8.00;99.90;;;;;;5044343;28;20185;-76
2022/11/22 06:26:07;;;;;;;3.60;1.33;;;8.00;99.90;;;;;;5049502;28;20174;-76
2022/11/22 06:28:35;;;;;;;3.57;1.50;;;8.00;99.90;;;;;;5046452;28;20189;-76
2022/11/22 06:31:07;;;;;;;5.90;1.37;;;7.90;99.90;;;;;;5052169;28;20189;-76
2022/11/22 06:33:33;;;;;;;4.17;1.60;;;8.00;99.90;;;;;;5045202;28;20173;-76
2022/11/22 06:36:03;;;;;;;4.70;1.20;;;8.00;99.90;;;;;;5037289;28;20174;-75
2022/11/22 06:38:31;;;;;;;3.07;1.27;;;8.00;99.90;;;;;;5042109;28;20182;-76
2022/11/22 06:41:06;;;;;;;7.00;1.50;;;8.00;99.90;;;;;;5050655;28;20189;-75
2022/11/22 06:43:33;;;;;;;5.03;1.47;;;8.00;99.90;;;;;;5034390;28;20181;-75
2022/11/22 06:46:00;;;;;;;5.30;1.43;;;8.00;99.90;;;;;;5050807;28;20173;-76
2022/11/22 06:48:28;;;;;;;4.70;1.10;;;8.00;99.90;;;;;;5043278;28;20281;-75
2022/11/22 06:51:03;;;;;;;3.70;1.10;;;8.00;99.90;;;;;;5053824;28;20192;-76
2022/11/22 06:53:31;;;;;;;3.37;1.13;;;8.00;99.90;;;;;;5054455;28;20177;-75
2022/11/22 06:56:08;;;;;;;2.57;1.10;;;8.00;99.90;;;;;;5040357;28;20174;-77
2022/11/22 06:58:34;;;;;;;1.53;0.97;;;8.00;99.90;;;;;;5038124;28;20197;-75
2022/11/22 07:01:26;;;;;;;3.20;1.00;;;8.00;99.90;;;;;;5034500;28;20470;-74
2022/11/22 07:03:58;;;;;;;3.93;1.43;;;8.00;99.90;;;;;;5046003;28;20180;-75
2022/11/22 07:06:25;;;;;;;3.47;1.17;;;8.10;99.90;;;;;;5046222;28;20170;-75
2022/11/22 07:08:51;;;;;;;2.83;1.00;;;8.00;99.90;;;;;;5051640;28;20193;-76
2022/11/22 07:11:20;;;;;;;5.13;1.60;;;8.10;99.90;;;;;;5049714;28;20195;-76
2022/11/22 07:13:47;;;;;;;4.73;1.10;;;8.10;99.90;;;;;;5050805;28;20224;-76
2022/11/22 07:16:15;;;;;;;3.73;1.30;;;8.10;99.90;;;;;;5048548;28;20289;-75
2022/11/22 07:18:41;;;;;;;4.23;1.17;;;8.10;99.90;;;;;;5047035;28;20212;-75
2022/11/22 07:21:11;;;;;;;3.97;1.10;;;8.10;99.90;;;;;;5052498;28;20441;-76
2022/11/22 07:23:38;;;;;;;4.50;1.20;;;8.20;99.90;;;;;;5051797;28;20192;-76
2022/11/22 07:26:06;;;;;;;2.53;1.10;;;8.20;99.90;;;;;;5054105;28;20181;-74
2022/11/22 07:28:32;;;;;;;2.27;1.00;;;8.20;99.90;;;;;;5041798;28;20327;-76
2022/11/22 07:30:59;;;;;;;4.87;0.93;;;8.20;99.90;;;;;;5038949;28;20288;-76
2022/11/22 07:33:25;;;;;;;3.83;1.40;;;8.30;99.90;;;;;;5051397;28;20188;-76
2022/11/22 07:35:53;;;;;;;2.93;0.80;;;8.30;99.90;;;;;;5045639;28;20170;-76
2022/11/22 07:38:19;;;;;;;4.87;1.10;;;8.30;99.90;;;;;;5047930;28;20181;-76
2022/11/22 07:40:46;;;;;;;4.10;1.23;;;8.40;99.90;;;;;;5034405;28;20209;-76
2022/11/22 07:43:14;;;;;;;2.47;1.00;;;8.40;99.90;;;;;;5034695;28;20286;-76
2022/11/22 07:45:45;;;;;;;3.37;0.90;;;8.40;99.90;;;;;;5052917;28;20185;-76
2022/11/22 07:48:13;;;;;;;3.43;1.00;;;8.50;99.90;;;;;;5035356;28;20173;-76
2022/11/22 07:50:40;;;;;;;5.60;0.90;;;8.50;99.90;;;;;;5048231;28;20181;-76
2022/11/22 07:53:09;;;;;;;3.60;1.00;;;8.50;99.90;;;;;;5054153;28;20173;-76
2022/11/22 07:55:35;;;;;;;7.13;1.00;;;8.50;99.90;;;;;;5046442;28;20212;-76
2022/11/22 07:58:01;;;;;;;3.10;0.90;;;8.50;99.90;;;;;;5045199;28;20173;-76
2022/11/22 08:00:27;;;;;;;2.63;0.87;;;8.50;99.90;;;;;;5057534;28;20219;-76
2022/11/22 08:02:53;;;;;;;1.93;0.93;;;8.60;99.90;;;;;;5053790;28;20188;-77
2022/11/22 08:05:22;;;;;;;3.90;0.90;;;8.60;99.90;;;;;;5056568;28;20169;-77
2022/11/22 08:07:52;;;;;;;2.33;0.70;;;8.60;99.90;;;;;;5054140;28;20197;-76
2022/11/22 08:10:18;;;;;;;5.80;1.30;;;8.60;99.90;;;;;;5044939;28;20185;-76
2022/11/22 08:12:44;;;;;;;4.43;1.00;;;8.70;99.90;;;;;;5057381;28;20177;-76
2022/11/22 08:15:14;;;;;;;3.33;1.10;;;8.60;99.90;;;;;;5050888;28;20181;-75
2022/11/22 08:17:40;;;;;;;3.90;1.30;;;8.60;99.90;;;;;;5040990;28;20209;-74
2022/11/22 08:20:10;;;;;;;3.23;0.90;;;8.60;99.90;;;;;;5037320;28;20202;-76
2022/11/22 08:22:36;;;;;;;3.93;1.00;;;8.60;99.90;;;;;;5037476;28;20182;-75
2022/11/22 08:25:07;;;;;;;2.07;0.90;;;8.60;99.90;;;;;;5055159;28;20204;-76
2022/11/22 08:27:35;;;;;;;3.03;1.00;;;8.60;99.90;;;;;;5057127;28;20189;-76
2022/11/22 08:30:06;;;;;;;4.83;1.10;;;8.60;99.90;;;;;;5056595;28;20177;-75
2022/11/22 08:32:32;;;;;;;4.37;1.23;;;8.60;99.90;;;;;;5052869;28;20177;-75
2022/11/22 08:34:58;;;;;;;4.67;1.40;;;8.70;99.90;;;;;;5048551;28;20188;-75
2022/11/22 08:37:26;;;;;;;3.27;1.30;;;8.70;99.90;;;;;;5037232;28;20182;-75
2022/11/22 08:39:51;;;;;;;1.40;1.00;;;8.70;99.90;;;;;;5045107;28;20201;-75
2022/11/22 08:42:19;;;;;;;3.50;0.93;;;8.70;99.90;;;;;;5044866;28;20173;-76
2022/11/22 08:44:47;;;;;;;5.33;1.37;;;8.70;99.90;;;;;;5037399;28;20178;-75
2022/11/22 08:47:15;;;;;;;4.33;1.33;;;8.80;99.90;;;;;;5042814;28;20194;-76
2022/11/22 08:49:40;;;;;;;3.13;1.03;;;8.80;99.90;;;;;;5037002;28;20181;-76
2022/11/22 08:52:06;;;;;;;3.03;1.20;;;8.90;99.90;;;;;;5041534;28;20188;-76
2022/11/22 08:54:32;;;;;;;3.97;1.10;;;9.10;99.90;;;;;;5056947;28;20177;-75
2022/11/22 08:56:59;;;;;;;2.33;1.13;;;9.20;99.90;;;;;;5055987;28;20181;-75
2022/11/22 08:59:25;;;;;;;4.60;1.30;;;9.40;99.90;;;;;;5056767;28;20193;-77
2022/11/22 09:01:51;;;;;;;4.50;1.43;;;9.50;99.90;;;;;;5055978;28;20276;-76
2022/11/22 09:04:21;;;;;;;4.30;1.20;;;9.60;99.90;;;;;;5056523;28;20166;-76
2022/11/22 09:06:49;;;;;;;4.47;1.17;;;9.80;99.90;;;;;;5049947;28;20177;-76
2022/11/22 09:09:15;;;;;;;4.00;1.27;;;10.00;99.90;;;;;;5036836;28;20188;-75
2022/11/22 09:11:43;;;;;;;2.57;1.50;;;10.20;99.90;;;;;;5036055;28;20174;-75
2022/11/22 09:14:09;;;;;;;5.15;1.50;;;10.50;99.90;;;;;;5045427;28;20264;-76
2022/11/22 09:16:34;;;;;;;3.28;1.20;;;10.70;99.90;;;;;;5043651;28;20277;-76
2022/11/22 09:19:00;;;;;;;3.45;1.20;;;10.90;99.90;;;;;;5048845;28;20193;-77
2022/11/22 09:21:26;;;;;;;2.47;1.00;;;11.10;99.90;;;;;;5055967;28;20181;-76
2022/11/22 09:23:53;;;;;;;3.72;1.05;;;11.10;99.90;;;;;;5054638;28;20179;-76
2022/11/22 09:26:24;;;;;;;4.63;1.40;;;11.20;99.90;;;;;;5042856;28;20246;-75
2022/11/22 09:28:54;;;;;;;3.28;1.20;;;11.30;99.90;;;;;;5051264;28;20208;-74
2022/11/22 09:31:22;;;;;;;4.22;1.13;;;11.20;99.90;;;;;;5046394;28;20227;-74
2022/11/22 09:33:48;;;;;;;4.55;1.13;;;11.20;99.90;;;;;;5055147;28;20199;-75
2022/11/22 09:36:21;;;;;;;3.92;1.00;;;11.20;99.90;;;;;;5047837;28;20213;-75
2022/11/22 09:38:50;;;;;;;3.38;1.35;;;11.20;99.90;;;;;;5052261;28;20263;-74
2022/11/22 09:41:17;;;;;;;3.65;0.80;;;11.20;99.90;;;;;;5048026;28;20197;-75
2022/11/22 09:43:59;;;;;;;2.72;1.23;;;11.10;99.90;;;;;;5045176;28;20174;-75
2022/11/22 09:46:34;;;;;;;2.40;1.10;;;11.00;99.90;;;;;;5046616;28;20188;-75
2022/11/22 09:49:09;;;;;;;3.78;1.20;;;10.90;99.90;;;;;;5067802;28;20228;-76
2022/11/22 09:52:09;;;;;;;4.95;1.30;;;10.80;99.90;;;;;;5058453;28;20192;-75
2022/11/22 09:54:54;;;;;;;2.90;0.88;;;10.60;99.90;;;;;;5052721;28;20264;-72
2022/11/22 09:57:44;;;;;;;3.42;1.30;;;10.50;99.90;;;;;;5063253;28;20173;-74
2022/11/22 10:00:24;;;;;;;4.80;1.20;;;10.50;99.90;;;;;;5047293;28;20217;-75
2022/11/22 10:03:10;;;;;;;4.38;1.08;;;10.40;99.90;;;;;;5038543;28;20188;-75
2022/11/22 10:06:00;;;;;;;2.40;0.80;;;10.30;99.90;;;;;;5055478;28;20224;-75
2022/11/22 10:09:10;;;;;;;3.92;0.90;;;10.30;99.90;;;;;;5046025;28;20199;-73
2022/11/22 10:12:09;;;;;;;1.52;0.80;;;10.20;99.90;;;;;;5037740;28;20215;-74
2022/11/22 10:15:00;;;;;;;2.30;1.03;;;10.20;99.90;;;;;;5045517;28;20246;-74
2022/11/22 10:17:47;;;;;;;3.97;1.20;;;10.20;99.90;;;;;;5054402;28;20189;-75
2022/11/22 10:20:15;;;;;;;3.10;0.90;;;10.20;99.90;;;;;;5037066;28;20197;-75
2022/11/22 10:22:40;;;;;;;3.28;1.00;;;10.10;99.90;;;;;;5052183;28;20235;-74
2022/11/22 10:25:13;;;;;;;2.50;0.93;;;10.10;99.90;;;;;;5035544;28;20181;-74
2022/11/22 10:27:40;;;;;;;3.03;0.90;;;10.20;99.90;;;;;;5035519;28;20182;-74
2022/11/22 10:30:14;;;;;;;3.72;1.40;;;10.20;99.90;;;;;;5051325;28;20216;-74
2022/11/22 10:32:48;;;;;;;3.08;1.08;;;10.20;99.90;;;;;;5045806;28;20188;-75
2022/11/22 10:35:13;;;;;;;4.15;1.30;;;10.20;99.90;;;;;;5049744;28;20178;-75
2022/11/22 10:38:00;;;;;;;2.88;0.93;;;10.20;99.90;;;;;;5047470;28;20196;-74
2022/11/22 10:40:57;;;;;;;3.28;1.17;;;10.30;99.90;;;;;;5059724;28;20230;-74
2022/11/22 10:43:32;;;;;;;3.88;1.08;;;10.30;99.90;;;;;;5028168;28;20263;-74
2022/11/22 10:46:27;;;;;;;2.92;0.90;;;10.30;99.90;;;;;;5051547;28;20181;-74
2022/11/22 10:49:05;;;;;;;3.42;1.00;;;10.40;99.90;;;;;;5052197;28;20177;-75
2022/11/22 10:51:52;;;;;;;2.60;0.82;;;10.40;99.90;;;;;;5030945;28;20279;-75
2022/11/22 10:54:26;;;;;;;1.95;0.85;;;10.40;99.90;;;;;;5061463;28;20224;-74
2022/11/22 10:57:21;;;;;;;2.50;0.85;;;10.50;99.90;;;;;;5040031;28;20264;-75
2022/11/22 11:00:00;;;;;;;1.77;0.73;;;10.50;99.90;;;;;;5045574;28;20214;-74
2022/11/22 11:02:37;;;;;;;2.83;0.90;;;10.60;99.90;;;;;;5068316;28;20192;-75
2022/11/22 11:05:06;;;;;;;1.20;0.60;;;10.60;99.90;;;;;;5053675;28;20264;-76
2022/11/22 11:07:37;;;;;;;2.00;0.77;;;10.70;99.90;;;;;;5056590;28;20176;-74
2022/11/22 11:10:16;;;;;;;1.40;0.77;;;10.80;99.90;;;;;;5053149;28;20210;-76
2022/11/22 11:12:52;;;;;;;1.40;0.60;;;11.00;99.90;;;;;;5054578;28;20683;-75
2022/11/22 11:15:36;;;;;;;2.30;1.00;;;11.10;99.90;;;;;;5053150;28;20276;-76
2022/11/22 11:18:13;;;;;;;1.00;0.68;;;11.20;99.90;;;;;;5054479;28;20235;-75
2022/11/22 11:20:46;;;;;;;1.95;1.23;;;11.10;99.90;;;;;;5044390;28;20267;-77
2022/11/22 11:23:13;;;;;;;1.92;0.70;;;11.10;99.90;;;;;;5049576;28;20201;-76
2022/11/22 11:25:42;;;;;;;1.77;0.70;;;11.10;99.90;;;;;;5050691;28;20252;-76
2022/11/22 11:28:22;;;;;;;1.13;0.70;;;11.00;99.90;;;;;;5046494;28;20177;-75
2022/11/22 11:30:53;;;;;;;2.33;0.80;;;11.00;99.90;;;;;;5048716;28;20212;-76
2022/11/22 11:33:28;;;;;;;3.60;0.90;;;10.90;99.90;;;;;;5055284;28;20260;-76
2022/11/22 11:36:31;;;;;;;2.42;0.93;;;10.90;99.90;;;;;;5041366;28;20182;-76
2022/11/22 11:38:59;;;;;;;1.65;0.70;;;10.90;99.90;;;;;;5040047;28;20215;-76
2022/11/22 11:41:27;;;;;;;3.92;0.70;;;10.80;99.90;;;;;;5046522;28;20289;-75
2022/11/22 11:43:56;;;;;;;1.38;0.70;;;10.80;99.90;;;;;;5042459;28;20181;-76
2022/11/22 11:46:27;;;;;;;1.42;0.70;;;10.80;99.90;;;;;;5054238;28;20274;-76
2022/11/22 11:49:09;;;;;;;2.70;1.10;;;10.80;99.90;;;;;;5055446;28;20193;-75
2022/11/22 11:51:39;;;;;;;2.90;1.00;;;10.70;99.90;;;;;;5047519;28;20189;-76
2022/11/22 11:54:25;;;;;;;2.70;0.82;;;10.80;99.90;;;;;;5050418;28;20181;-76
2022/11/22 11:57:02;;;;;;;2.00;0.80;;;10.80;99.90;;;;;;5056149;28;20209;-76
2022/11/22 11:59:36;;;;;;;1.80;0.73;;;10.90;99.90;;;;;;5045261;28;20240;-76
2022/11/22 12:02:12;;;;;;;1.50;0.75;;;10.90;99.90;;;;;;5054688;28;20183;-76
2022/11/22 12:04:51;;;;;;;2.30;0.65;;;11.00;99.90;;;;;;5037712;28;20273;-72
2022/11/22 12:07:22;;;;;;;2.00;0.90;;;11.00;99.90;;;;;;5057513;28;20272;-75
2022/11/22 12:09:50;;;;;;;2.40;0.80;;;11.00;99.90;;;;;;5053721;28;20268;-76
2022/11/22 12:12:27;;;;;;;1.17;0.70;;;11.10;99.90;;;;;;5057579;28;20184;-75
2022/11/22 12:15:16;;;;;;;1.98;0.70;;;11.10;99.90;;;;;;5057357;28;20177;-76
2022/11/22 12:18:13;;;;;;;2.15;0.90;;;11.20;99.90;;;;;;5051825;28;20185;-75
2022/11/22 12:20:52;;;;;;;1.75;0.70;;;11.30;99.90;;;;;;5048122;28;20220;-75
2022/11/22 12:23:31;;;;;;;1.55;0.70;;;11.30;99.90;;;;;;5040452;28;20162;-75
2022/11/22 12:26:00;;;;;;;1.42;0.63;;;11.30;99.90;;;;;;5037716;28;20174;-75
2022/11/22 12:28:27;;;;;;;3.75;1.23;;;11.30;99.90;;;;;;5055373;28;20264;-75
2022/11/22 12:31:27;;;;;;;1.48;0.90;;;11.30;99.90;;;;;;5044780;28;20178;-75
2022/11/22 12:33:57;;;;;;;2.33;1.27;;;11.30;99.90;;;;;;5062080;28;20178;-76
2022/11/22 12:36:35;;;;;;;1.98;1.10;;;11.20;99.90;;;;;;5045618;28;20187;-75
2022/11/22 12:39:13;;;;;;;2.58;1.10;;;11.20;99.90;;;;;;5037259;28;20288;-73
2022/11/22 12:41:41;;;;;;;1.73;0.80;;;11.10;99.90;;;;;;5049718;28;20188;-74
2022/11/22 12:44:17;;;;;;;1.27;0.80;;;11.10;99.90;;;;;;5045084;28;20257;-75
2022/11/22 12:46:53;;;;;;;1.33;0.70;;;11.10;99.90;;;;;;5055388;28;20172;-75
2022/11/22 12:49:24;;;;;;;1.70;0.90;;;11.00;99.90;;;;;;5039961;28;20231;-75
2022/11/22 12:52:08;;;;;;;1.33;0.70;;;11.00;99.90;;;;;;5052169;28;20230;-76
2022/11/22 12:55:25;;;;;;;1.52;0.90;;;10.90;99.90;;;;;;5044117;28;20178;-76
2022/11/22 12:58:06;;;;;;;1.92;0.80;;;10.90;99.90;;;;;;5020053;28;20189;-75
2022/11/22 13:00:40;;;;;;;2.92;1.30;;;10.90;99.90;;;;;;5041253;28;20237;-76
2022/11/22 13:03:20;;;;;;;1.67;0.70;;;10.90;99.90;;;;;;5056421;28;20182;-75
2022/11/22 13:05:54;;;;;;;1.27;0.63;;;11.00;99.90;;;;;;5050408;28;20208;-76
2022/11/22 13:08:50;;;;;;;1.33;0.60;;;11.00;99.90;;;;;;5039965;28;20233;-76
2022/11/22 13:11:31;;;;;;;1.17;0.57;;;11.10;99.90;;;;;;5053350;28;20245;-76
2022/11/22 13:14:34;;;;;;;0.93;0.70;;;11.20;99.90;;;;;;5055538;28;20189;-75
2022/11/22 13:17:07;;;;;;;1.38;0.57;;;11.20;99.90;;;;;;5026764;28;20196;-76
2022/11/22 13:19:41;;;;;;;0.50;0.38;;;11.30;99.90;;;;;;5047804;28;20197;-76
2022/11/22 13:22:31;;;;;;;0.40;0.30;;;11.30;99.90;;;;;;5044225;28;20182;-76
2022/11/22 13:25:26;;;;;;;1.05;0.40;;;11.40;99.90;;;;;;5049283;28;20201;-75
2022/11/22 13:27:53;;;;;;;0.65;0.28;;;11.40;99.90;;;;;;5054994;28;20265;-76
2022/11/22 13:30:22;;;;;;;0.45;0.30;;;11.40;99.90;;;;;;5045244;28;20189;-77